Terminal Aerodrome Forecast
Issued by NWS Louisville, KY

Home | Current Version | Previous Version | Text Only | Print | Product List | Glossary On
Versions: 1 2 3 4 5 6 7 8 9 10 11 12 13 14 15 16 17 18 19 20 21 22 23 24 25
000
FTUS43 KLMK 272300
TAFLEX
TAF
KLEX 272328Z 2800/2824 VRB05KT P6SM SCT025 BKN040
     FM280600 VRB03KT 3SM BR SCT025
     FM281500 25004KT P6SM VCSH SCT035=

USA.gov is the U.S. government's official web portal to all federal, state and local government web resources and services.